sensor_id;sensor_type;location;lat;lon;timestamp;P1;durP1;ratioP1;P2;durP2;ratioP2
15106;SDS011;7654;45.308;-75.096;2023-06-10T00:02:12;0.23;;;0.23;;
15106;SDS011;7654;45.308;-75.096;2023-06-10T00:04:45;0.20;;;0.20;;
15106;SDS011;7654;45.308;-75.096;2023-06-10T00:07:16;0.20;;;0.20;;
15106;SDS011;7654;45.308;-75.096;2023-06-10T00:09:47;0.20;;;0.20;;
15106;SDS011;7654;45.308;-75.096;2023-06-10T00:12:17;0.20;;;0.20;;
15106;SDS011;7654;45.308;-75.096;2023-06-10T00:14:49;0.20;;;0.20;;
15106;SDS011;7654;45.308;-75.096;2023-06-10T00:17:21;0.30;;;0.30;;
15106;SDS011;7654;45.308;-75.096;2023-06-10T00:19:52;0.30;;;0.30;;
15106;SDS011;7654;45.308;-75.096;2023-06-10T00:22:22;0.27;;;0.27;;
15106;SDS011;7654;45.308;-75.096;2023-06-10T00:24:57;0.30;;;0.30;;
15106;SDS011;7654;45.308;-75.096;2023-06-10T00:27:27;0.30;;;0.30;;
15106;SDS011;7654;45.308;-75.096;2023-06-10T00:30:04;0.30;;;0.30;;
15106;SDS011;7654;45.308;-75.096;2023-06-10T00:32:36;0.37;;;0.37;;
15106;SDS011;7654;45.308;-75.096;2023-06-10T00:35:08;0.30;;;0.30;;
15106;SDS011;7654;45.308;-75.096;2023-06-10T00:37:39;0.30;;;0.30;;
15106;SDS011;7654;45.308;-75.096;2023-06-10T00:40:10;0.23;;;0.23;;
15106;SDS011;7654;45.308;-75.096;2023-06-10T00:42:41;0.30;;;0.30;;
15106;SDS011;7654;45.308;-75.096;2023-06-10T00:45:13;0.30;;;0.30;;
15106;SDS011;7654;45.308;-75.096;2023-06-10T00:47:44;0.30;;;0.30;;
15106;SDS011;7654;45.308;-75.096;2023-06-10T00:50:15;0.30;;;0.30;;
15106;SDS011;7654;45.308;-75.096;2023-06-10T00:52:46;0.30;;;0.30;;
15106;SDS011;7654;45.308;-75.096;2023-06-10T00:55:21;0.30;;;0.30;;
15106;SDS011;7654;45.308;-75.096;2023-06-10T00:57:54;0.30;;;0.30;;
15106;SDS011;7654;45.308;-75.096;2023-06-10T01:00:26;0.40;;;0.40;;
15106;SDS011;7654;45.308;-75.096;2023-06-10T01:02:57;0.30;;;0.30;;
15106;SDS011;7654;45.308;-75.096;2023-06-10T01:05:27;0.37;;;0.37;;
15106;SDS011;7654;45.308;-75.096;2023-06-10T01:08:00;0.40;;;0.40;;
15106;SDS011;7654;45.308;-75.096;2023-06-10T01:10:33;0.30;;;0.30;;
15106;SDS011;7654;45.308;-75.096;2023-06-10T01:13:09;0.30;;;0.30;;
15106;SDS011;7654;45.308;-75.096;2023-06-10T01:15:42;0.40;;;0.40;;
15106;SDS011;7654;45.308;-75.096;2023-06-10T01:18:13;0.30;;;0.30;;
15106;SDS011;7654;45.308;-75.096;2023-06-10T01:20:44;0.37;;;0.37;;
15106;SDS011;7654;45.308;-75.096;2023-06-10T01:25:32;0.30;;;0.30;;
15106;SDS011;7654;45.308;-75.096;2023-06-10T01:28:07;0.30;;;0.30;;
15106;SDS011;7654;45.308;-75.096;2023-06-10T01:30:46;0.30;;;0.30;;
15106;SDS011;7654;45.308;-75.096;2023-06-10T01:33:25;0.40;;;0.40;;
15106;SDS011;7654;45.308;-75.096;2023-06-10T01:35:59;0.30;;;0.30;;
15106;SDS011;7654;45.308;-75.096;2023-06-10T01:38:32;0.40;;;0.40;;
15106;SDS011;7654;45.308;-75.096;2023-06-10T01:41:14;0.37;;;0.37;;
15106;SDS011;7654;45.308;-75.096;2023-06-10T01:43:46;0.33;;;0.33;;
15106;SDS011;7654;45.308;-75.096;2023-06-10T01:46:17;0.30;;;0.30;;
15106;SDS011;7654;45.308;-75.096;2023-06-10T01:48:48;0.30;;;0.30;;
15106;SDS011;7654;45.308;-75.096;2023-06-10T01:51:20;0.37;;;0.37;;
15106;SDS011;7654;45.308;-75.096;2023-06-10T01:53:50;0.30;;;0.30;;
15106;SDS011;7654;45.308;-75.096;2023-06-10T01:56:23;0.30;;;0.30;;
15106;SDS011;7654;45.308;-75.096;2023-06-10T01:58:54;0.30;;;0.30;;
15106;SDS011;7654;45.308;-75.096;2023-06-10T02:01:26;0.30;;;0.30;;
15106;SDS011;7654;45.308;-75.096;2023-06-10T02:03:56;0.30;;;0.30;;
15106;SDS011;7654;45.308;-75.096;2023-06-10T02:06:27;0.40;;;0.40;;
15106;SDS011;7654;45.308;-75.096;2023-06-10T02:08:57;0.40;;;0.40;;
15106;SDS011;7654;45.308;-75.096;2023-06-10T02:11:29;0.40;;;0.40;;
15106;SDS011;7654;45.308;-75.096;2023-06-10T02:13:59;0.30;;;0.30;;
15106;SDS011;7654;45.308;-75.096;2023-06-10T02:16:30;0.30;;;0.30;;
15106;SDS011;7654;45.308;-75.096;2023-06-10T02:19:00;0.40;;;0.40;;
15106;SDS011;7654;45.308;-75.096;2023-06-10T02:21:34;0.40;;;0.40;;
15106;SDS011;7654;45.308;-75.096;2023-06-10T02:24:05;0.30;;;0.30;;
15106;SDS011;7654;45.308;-75.096;2023-06-10T02:26:37;0.40;;;0.40;;
15106;SDS011;7654;45.308;-75.096;2023-06-10T02:29:08;0.30;;;0.30;;
15106;SDS011;7654;45.308;-75.096;2023-06-10T02:31:38;0.30;;;0.30;;
15106;SDS011;7654;45.308;-75.096;2023-06-10T02:34:08;0.30;;;0.30;;
15106;SDS011;7654;45.308;-75.096;2023-06-10T02:36:39;0.33;;;0.33;;
15106;SDS011;7654;45.308;-75.096;2023-06-10T02:39:09;0.40;;;0.40;;
15106;SDS011;7654;45.308;-75.096;2023-06-10T02:41:42;0.40;;;0.40;;
15106;SDS011;7654;45.308;-75.096;2023-06-10T02:44:12;0.40;;;0.40;;
15106;SDS011;7654;45.308;-75.096;2023-06-10T02:46:42;0.37;;;0.37;;
15106;SDS011;7654;45.308;-75.096;2023-06-10T02:49:13;0.40;;;0.40;;
15106;SDS011;7654;45.308;-75.096;2023-06-10T02:51:44;0.40;;;0.40;;
15106;SDS011;7654;45.308;-75.096;2023-06-10T02:54:14;0.40;;;0.40;;
15106;SDS011;7654;45.308;-75.096;2023-06-10T02:56:46;0.43;;;0.43;;
15106;SDS011;7654;45.308;-75.096;2023-06-10T02:59:17;0.40;;;0.40;;
15106;SDS011;7654;45.308;-75.096;2023-06-10T03:01:47;0.40;;;0.40;;
15106;SDS011;7654;45.308;-75.096;2023-06-10T03:04:17;0.40;;;0.40;;
15106;SDS011;7654;45.308;-75.096;2023-06-10T03:06:48;0.40;;;0.40;;
15106;SDS011;7654;45.308;-75.096;2023-06-10T03:09:18;0.40;;;0.40;;
15106;SDS011;7654;45.308;-75.096;2023-06-10T03:11:50;0.30;;;0.30;;
15106;SDS011;7654;45.308;-75.096;2023-06-10T03:14:21;0.40;;;0.40;;
15106;SDS011;7654;45.308;-75.096;2023-06-10T03:16:52;0.50;;;0.50;;
15106;SDS011;7654;45.308;-75.096;2023-06-10T03:19:23;0.40;;;0.40;;
15106;SDS011;7654;45.308;-75.096;2023-06-10T03:22:06;0.30;;;0.30;;
15106;SDS011;7654;45.308;-75.096;2023-06-10T03:24:38;0.30;;;0.30;;
15106;SDS011;7654;45.308;-75.096;2023-06-10T03:27:10;0.47;;;0.47;;
15106;SDS011;7654;45.308;-75.096;2023-06-10T03:29:40;0.50;;;0.50;;
15106;SDS011;7654;45.308;-75.096;2023-06-10T03:32:11;0.50;;;0.50;;
15106;SDS011;7654;45.308;-75.096;2023-06-10T03:34:41;0.30;;;0.30;;
15106;SDS011;7654;45.308;-75.096;2023-06-10T03:37:15;0.30;;;0.30;;
15106;SDS011;7654;45.308;-75.096;2023-06-10T03:39:45;0.40;;;0.40;;
15106;SDS011;7654;45.308;-75.096;2023-06-10T03:42:17;0.40;;;0.40;;
15106;SDS011;7654;45.308;-75.096;2023-06-10T03:44:48;0.40;;;0.40;;
15106;SDS011;7654;45.308;-75.096;2023-06-10T03:47:18;0.40;;;0.40;;
15106;SDS011;7654;45.308;-75.096;2023-06-10T03:49:49;0.40;;;0.40;;
15106;SDS011;7654;45.308;-75.096;2023-06-10T03:52:20;0.40;;;0.40;;
15106;SDS011;7654;45.308;-75.096;2023-06-10T03:54:50;0.40;;;0.40;;
15106;SDS011;7654;45.308;-75.096;2023-06-10T03:57:23;0.40;;;0.40;;
15106;SDS011;7654;45.308;-75.096;2023-06-10T03:59:53;0.40;;;0.40;;
15106;SDS011;7654;45.308;-75.096;2023-06-10T04:02:24;0.40;;;0.40;;
15106;SDS011;7654;45.308;-75.096;2023-06-10T04:04:54;0.40;;;0.40;;
15106;SDS011;7654;45.308;-75.096;2023-06-10T04:07:25;0.50;;;0.50;;
15106;SDS011;7654;45.308;-75.096;2023-06-10T04:09:57;0.40;;;0.40;;
15106;SDS011;7654;45.308;-75.096;2023-06-10T04:12:29;0.40;;;0.40;;
15106;SDS011;7654;45.308;-75.096;2023-06-10T04:14:59;0.40;;;0.40;;
15106;SDS011;7654;45.308;-75.096;2023-06-10T04:17:30;0.37;;;0.37;;
15106;SDS011;7654;45.308;-75.096;2023-06-10T04:20:00;0.40;;;0.40;;
15106;SDS011;7654;45.308;-75.096;2023-06-10T04:22:34;0.43;;;0.43;;
15106;SDS011;7654;45.308;-75.096;2023-06-10T04:25:05;0.43;;;0.43;;
15106;SDS011;7654;45.308;-75.096;2023-06-10T04:27:38;0.40;;;0.40;;
15106;SDS011;7654;45.308;-75.096;2023-06-10T04:30:08;0.40;;;0.40;;
15106;SDS011;7654;45.308;-75.096;2023-06-10T04:32:39;0.40;;;0.40;;
15106;SDS011;7654;45.308;-75.096;2023-06-10T04:35:11;0.40;;;0.40;;
15106;SDS011;7654;45.308;-75.096;2023-06-10T04:37:41;0.33;;;0.33;;
15106;SDS011;7654;45.308;-75.096;2023-06-10T04:40:12;0.40;;;0.40;;
15106;SDS011;7654;45.308;-75.096;2023-06-10T04:42:45;0.40;;;0.40;;
15106;SDS011;7654;45.308;-75.096;2023-06-10T04:45:27;0.40;;;0.40;;
15106;SDS011;7654;45.308;-75.096;2023-06-10T04:47:58;0.40;;;0.40;;
15106;SDS011;7654;45.308;-75.096;2023-06-10T04:50:28;0.40;;;0.40;;
15106;SDS011;7654;45.308;-75.096;2023-06-10T04:53:00;0.40;;;0.40;;
15106;SDS011;7654;45.308;-75.096;2023-06-10T04:55:30;0.37;;;0.37;;
15106;SDS011;7654;45.308;-75.096;2023-06-10T04:58:02;0.30;;;0.30;;
15106;SDS011;7654;45.308;-75.096;2023-06-10T05:00:33;0.40;;;0.40;;
15106;SDS011;7654;45.308;-75.096;2023-06-10T05:03:03;0.47;;;0.47;;
15106;SDS011;7654;45.308;-75.096;2023-06-10T05:05:34;0.50;;;0.50;;
15106;SDS011;7654;45.308;-75.096;2023-06-10T05:08:04;0.40;;;0.40;;
15106;SDS011;7654;45.308;-75.096;2023-06-10T05:10:35;0.40;;;0.40;;
15106;SDS011;7654;45.308;-75.096;2023-06-10T05:13:07;0.40;;;0.40;;
15106;SDS011;7654;45.308;-75.096;2023-06-10T05:15:38;0.40;;;0.40;;
15106;SDS011;7654;45.308;-75.096;2023-06-10T05:18:11;0.40;;;0.40;;
15106;SDS011;7654;45.308;-75.096;2023-06-10T05:20:42;0.40;;;0.40;;
15106;SDS011;7654;45.308;-75.096;2023-06-10T05:23:12;0.40;;;0.40;;
15106;SDS011;7654;45.308;-75.096;2023-06-10T05:25:43;0.40;;;0.40;;
15106;SDS011;7654;45.308;-75.096;2023-06-10T05:28:15;0.40;;;0.40;;
15106;SDS011;7654;45.308;-75.096;2023-06-10T05:30:46;0.40;;;0.40;;
15106;SDS011;7654;45.308;-75.096;2023-06-10T05:33:17;0.40;;;0.40;;
15106;SDS011;7654;45.308;-75.096;2023-06-10T05:35:48;0.43;;;0.43;;
15106;SDS011;7654;45.308;-75.096;2023-06-10T05:38:18;0.40;;;0.40;;
15106;SDS011;7654;45.308;-75.096;2023-06-10T05:40:49;0.40;;;0.40;;
15106;SDS011;7654;45.308;-75.096;2023-06-10T05:43:21;0.40;;;0.40;;
15106;SDS011;7654;45.308;-75.096;2023-06-10T05:45:51;0.40;;;0.40;;
15106;SDS011;7654;45.308;-75.096;2023-06-10T05:48:22;0.40;;;0.40;;
15106;SDS011;7654;45.308;-75.096;2023-06-10T05:50:52;0.40;;;0.40;;
15106;SDS011;7654;45.308;-75.096;2023-06-10T05:53:23;0.40;;;0.40;;
15106;SDS011;7654;45.308;-75.096;2023-06-10T05:55:53;0.40;;;0.40;;
15106;SDS011;7654;45.308;-75.096;2023-06-10T05:58:26;0.40;;;0.40;;
15106;SDS011;7654;45.308;-75.096;2023-06-10T06:00:56;0.40;;;0.40;;
15106;SDS011;7654;45.308;-75.096;2023-06-10T06:03:29;0.40;;;0.40;;
15106;SDS011;7654;45.308;-75.096;2023-06-10T06:06:00;0.40;;;0.40;;
15106;SDS011;7654;45.308;-75.096;2023-06-10T06:08:30;0.40;;;0.40;;
15106;SDS011;7654;45.308;-75.096;2023-06-10T06:11:00;0.40;;;0.40;;
15106;SDS011;7654;45.308;-75.096;2023-06-10T06:13:32;0.50;;;0.50;;
15106;SDS011;7654;45.308;-75.096;2023-06-10T06:16:03;0.40;;;0.40;;
15106;SDS011;7654;45.308;-75.096;2023-06-10T06:18:33;0.40;;;0.40;;
15106;SDS011;7654;45.308;-75.096;2023-06-10T06:21:04;0.40;;;0.40;;
15106;SDS011;7654;45.308;-75.096;2023-06-10T06:23:34;0.40;;;0.40;;
15106;SDS011;7654;45.308;-75.096;2023-06-10T06:26:05;0.40;;;0.40;;
15106;SDS011;7654;45.308;-75.096;2023-06-10T06:28:37;0.40;;;0.40;;
15106;SDS011;7654;45.308;-75.096;2023-06-10T06:31:07;0.40;;;0.40;;
15106;SDS011;7654;45.308;-75.096;2023-06-10T06:33:38;0.50;;;0.50;;
15106;SDS011;7654;45.308;-75.096;2023-06-10T06:36:09;0.43;;;0.43;;
15106;SDS011;7654;45.308;-75.096;2023-06-10T06:38:39;0.40;;;0.40;;
15106;SDS011;7654;45.308;-75.096;2023-06-10T06:41:09;0.47;;;0.47;;
15106;SDS011;7654;45.308;-75.096;2023-06-10T06:43:45;0.30;;;0.30;;
15106;SDS011;7654;45.308;-75.096;2023-06-10T06:46:15;0.40;;;0.40;;
15106;SDS011;7654;45.308;-75.096;2023-06-10T06:48:46;0.43;;;0.43;;
15106;SDS011;7654;45.308;-75.096;2023-06-10T06:51:17;0.50;;;0.50;;
15106;SDS011;7654;45.308;-75.096;2023-06-10T06:53:47;0.40;;;0.40;;
15106;SDS011;7654;45.308;-75.096;2023-06-10T06:56:18;0.40;;;0.40;;
15106;SDS011;7654;45.308;-75.096;2023-06-10T06:58:50;0.40;;;0.40;;
15106;SDS011;7654;45.308;-75.096;2023-06-10T07:01:23;0.40;;;0.40;;
15106;SDS011;7654;45.308;-75.096;2023-06-10T07:03:54;0.40;;;0.40;;
15106;SDS011;7654;45.308;-75.096;2023-06-10T07:06:24;0.40;;;0.40;;
15106;SDS011;7654;45.308;-75.096;2023-06-10T07:08:55;0.50;;;0.50;;
15106;SDS011;7654;45.308;-75.096;2023-06-10T07:11:25;0.40;;;0.40;;
15106;SDS011;7654;45.308;-75.096;2023-06-10T07:13:57;0.40;;;0.40;;
15106;SDS011;7654;45.308;-75.096;2023-06-10T07:16:27;0.50;;;0.50;;
15106;SDS011;7654;45.308;-75.096;2023-06-10T07:18:57;0.40;;;0.40;;
15106;SDS011;7654;45.308;-75.096;2023-06-10T07:21:31;0.50;;;0.50;;
15106;SDS011;7654;45.308;-75.096;2023-06-10T07:24:04;0.40;;;0.40;;
15106;SDS011;7654;45.308;-75.096;2023-06-10T07:26:35;0.40;;;0.40;;
15106;SDS011;7654;45.308;-75.096;2023-06-10T07:29:08;0.50;;;0.50;;
15106;SDS011;7654;45.308;-75.096;2023-06-10T07:31:38;0.50;;;0.50;;
15106;SDS011;7654;45.308;-75.096;2023-06-10T07:34:10;0.47;;;0.47;;
15106;SDS011;7654;45.308;-75.096;2023-06-10T07:36:41;0.47;;;0.47;;
15106;SDS011;7654;45.308;-75.096;2023-06-10T07:39:12;0.50;;;0.50;;
15106;SDS011;7654;45.308;-75.096;2023-06-10T07:41:42;0.40;;;0.40;;
15106;SDS011;7654;45.308;-75.096;2023-06-10T07:44:14;0.40;;;0.40;;
15106;SDS011;7654;45.308;-75.096;2023-06-10T07:46:44;0.40;;;0.40;;
15106;SDS011;7654;45.308;-75.096;2023-06-10T07:49:15;0.50;;;0.50;;
15106;SDS011;7654;45.308;-75.096;2023-06-10T07:51:45;0.40;;;0.40;;
15106;SDS011;7654;45.308;-75.096;2023-06-10T07:54:16;0.40;;;0.40;;
15106;SDS011;7654;45.308;-75.096;2023-06-10T07:56:46;0.40;;;0.40;;
15106;SDS011;7654;45.308;-75.096;2023-06-10T07:59:19;0.40;;;0.40;;
15106;SDS011;7654;45.308;-75.096;2023-06-10T08:01:50;0.40;;;0.40;;
15106;SDS011;7654;45.308;-75.096;2023-06-10T08:04:20;0.43;;;0.43;;
15106;SDS011;7654;45.308;-75.096;2023-06-10T08:06:51;0.40;;;0.40;;
15106;SDS011;7654;45.308;-75.096;2023-06-10T08:09:22;0.40;;;0.40;;
15106;SDS011;7654;45.308;-75.096;2023-06-10T08:11:52;0.40;;;0.40;;
15106;SDS011;7654;45.308;-75.096;2023-06-10T08:14:24;0.50;;;0.50;;
15106;SDS011;7654;45.308;-75.096;2023-06-10T08:16:55;0.50;;;0.50;;
15106;SDS011;7654;45.308;-75.096;2023-06-10T08:19:25;0.47;;;0.47;;
15106;SDS011;7654;45.308;-75.096;2023-06-10T08:21:55;0.40;;;0.40;;
15106;SDS011;7654;45.308;-75.096;2023-06-10T08:24:26;0.40;;;0.40;;
15106;SDS011;7654;45.308;-75.096;2023-06-10T08:26:56;0.40;;;0.40;;
15106;SDS011;7654;45.308;-75.096;2023-06-10T08:29:28;0.40;;;0.40;;
15106;SDS011;7654;45.308;-75.096;2023-06-10T08:31:59;0.50;;;0.50;;
15106;SDS011;7654;45.308;-75.096;2023-06-10T08:34:30;0.50;;;0.50;;
15106;SDS011;7654;45.308;-75.096;2023-06-10T08:37:02;0.47;;;0.47;;
15106;SDS011;7654;45.308;-75.096;2023-06-10T08:39:33;0.40;;;0.40;;
15106;SDS011;7654;45.308;-75.096;2023-06-10T08:42:06;0.50;;;0.50;;
15106;SDS011;7654;45.308;-75.096;2023-06-10T08:44:46;0.40;;;0.40;;
15106;SDS011;7654;45.308;-75.096;2023-06-10T08:47:18;0.40;;;0.40;;
15106;SDS011;7654;45.308;-75.096;2023-06-10T08:49:51;0.40;;;0.40;;
15106;SDS011;7654;45.308;-75.096;2023-06-10T08:52:23;0.40;;;0.40;;
15106;SDS011;7654;45.308;-75.096;2023-06-10T08:54:59;0.50;;;0.50;;
15106;SDS011;7654;45.308;-75.096;2023-06-10T08:57:32;0.40;;;0.40;;
15106;SDS011;7654;45.308;-75.096;2023-06-10T09:00:05;0.40;;;0.40;;
15106;SDS011;7654;45.308;-75.096;2023-06-10T09:02:37;0.40;;;0.40;;
15106;SDS011;7654;45.308;-75.096;2023-06-10T09:05:08;0.43;;;0.43;;
15106;SDS011;7654;45.308;-75.096;2023-06-10T09:07:39;0.40;;;0.40;;
15106;SDS011;7654;45.308;-75.096;2023-06-10T09:10:10;0.43;;;0.43;;
15106;SDS011;7654;45.308;-75.096;2023-06-10T09:12:41;0.50;;;0.50;;
15106;SDS011;7654;45.308;-75.096;2023-06-10T09:15:13;0.50;;;0.50;;
15106;SDS011;7654;45.308;-75.096;2023-06-10T09:17:44;0.50;;;0.50;;
15106;SDS011;7654;45.308;-75.096;2023-06-10T09:20:15;0.40;;;0.40;;
15106;SDS011;7654;45.308;-75.096;2023-06-10T09:22:46;0.50;;;0.50;;
15106;SDS011;7654;45.308;-75.096;2023-06-10T09:25:17;0.40;;;0.40;;
15106;SDS011;7654;45.308;-75.096;2023-06-10T09:27:48;0.40;;;0.40;;
15106;SDS011;7654;45.308;-75.096;2023-06-10T09:30:26;0.50;;;0.50;;
15106;SDS011;7654;45.308;-75.096;2023-06-10T09:32:58;0.40;;;0.40;;
15106;SDS011;7654;45.308;-75.096;2023-06-10T09:35:29;0.40;;;0.40;;
15106;SDS011;7654;45.308;-75.096;2023-06-10T09:38:00;0.50;;;0.50;;
15106;SDS011;7654;45.308;-75.096;2023-06-10T09:40:33;0.50;;;0.50;;
15106;SDS011;7654;45.308;-75.096;2023-06-10T09:43:19;0.40;;;0.40;;
15106;SDS011;7654;45.308;-75.096;2023-06-10T09:45:51;0.50;;;0.50;;
15106;SDS011;7654;45.308;-75.096;2023-06-10T09:48:25;0.40;;;0.40;;
15106;SDS011;7654;45.308;-75.096;2023-06-10T09:50:55;0.40;;;0.40;;
15106;SDS011;7654;45.308;-75.096;2023-06-10T09:53:26;0.50;;;0.50;;
15106;SDS011;7654;45.308;-75.096;2023-06-10T09:55:58;0.53;;;0.53;;
15106;SDS011;7654;45.308;-75.096;2023-06-10T09:58:35;0.50;;;0.50;;
15106;SDS011;7654;45.308;-75.096;2023-06-10T10:01:08;0.40;;;0.40;;
15106;SDS011;7654;45.308;-75.096;2023-06-10T10:03:43;0.50;;;0.50;;
15106;SDS011;7654;45.308;-75.096;2023-06-10T10:06:15;0.47;;;0.47;;
15106;SDS011;7654;45.308;-75.096;2023-06-10T10:08:48;0.40;;;0.40;;
15106;SDS011;7654;45.308;-75.096;2023-06-10T10:11:20;0.50;;;0.50;;
15106;SDS011;7654;45.308;-75.096;2023-06-10T10:13:51;0.50;;;0.50;;
15106;SDS011;7654;45.308;-75.096;2023-06-10T10:16:26;0.40;;;0.40;;
15106;SDS011;7654;45.308;-75.096;2023-06-10T10:19:04;0.50;;;0.50;;
15106;SDS011;7654;45.308;-75.096;2023-06-10T10:21:42;0.40;;;0.40;;
15106;SDS011;7654;45.308;-75.096;2023-06-10T10:24:20;0.50;;;0.50;;
15106;SDS011;7654;45.308;-75.096;2023-06-10T10:26:54;0.53;;;0.53;;
15106;SDS011;7654;45.308;-75.096;2023-06-10T10:29:28;0.50;;;0.50;;
15106;SDS011;7654;45.308;-75.096;2023-06-10T10:32:04;0.43;;;0.43;;
15106;SDS011;7654;45.308;-75.096;2023-06-10T10:34:37;0.50;;;0.50;;
15106;SDS011;7654;45.308;-75.096;2023-06-10T10:37:12;0.40;;;0.40;;
15106;SDS011;7654;45.308;-75.096;2023-06-10T10:39:43;0.50;;;0.50;;
15106;SDS011;7654;45.308;-75.096;2023-06-10T10:42:14;0.40;;;0.40;;
15106;SDS011;7654;45.308;-75.096;2023-06-10T10:44:45;0.43;;;0.43;;
15106;SDS011;7654;45.308;-75.096;2023-06-10T10:47:18;0.43;;;0.43;;
15106;SDS011;7654;45.308;-75.096;2023-06-10T10:49:51;0.40;;;0.40;;
15106;SDS011;7654;45.308;-75.096;2023-06-10T10:52:22;0.50;;;0.50;;
15106;SDS011;7654;45.308;-75.096;2023-06-10T10:54:52;0.50;;;0.50;;
15106;SDS011;7654;45.308;-75.096;2023-06-10T10:57:28;0.40;;;0.40;;
15106;SDS011;7654;45.308;-75.096;2023-06-10T10:59:59;0.40;;;0.40;;
15106;SDS011;7654;45.308;-75.096;2023-06-10T11:02:39;0.40;;;0.40;;
15106;SDS011;7654;45.308;-75.096;2023-06-10T11:05:13;0.40;;;0.40;;
15106;SDS011;7654;45.308;-75.096;2023-06-10T11:07:52;0.40;;;0.40;;
15106;SDS011;7654;45.308;-75.096;2023-06-10T11:10:32;0.40;;;0.40;;
15106;SDS011;7654;45.308;-75.096;2023-06-10T11:13:06;0.40;;;0.40;;
15106;SDS011;7654;45.308;-75.096;2023-06-10T11:15:43;0.40;;;0.40;;
15106;SDS011;7654;45.308;-75.096;2023-06-10T11:18:20;0.40;;;0.40;;
15106;SDS011;7654;45.308;-75.096;2023-06-10T11:20:53;0.40;;;0.40;;
15106;SDS011;7654;45.308;-75.096;2023-06-10T11:23:32;0.40;;;0.40;;
15106;SDS011;7654;45.308;-75.096;2023-06-10T11:26:17;0.30;;;0.30;;
15106;SDS011;7654;45.308;-75.096;2023-06-10T11:29:08;0.40;;;0.40;;
15106;SDS011;7654;45.308;-75.096;2023-06-10T11:31:39;0.40;;;0.40;;
15106;SDS011;7654;45.308;-75.096;2023-06-10T11:34:20;0.40;;;0.40;;
15106;SDS011;7654;45.308;-75.096;2023-06-10T11:36:54;0.40;;;0.40;;
15106;SDS011;7654;45.308;-75.096;2023-06-10T11:39:25;0.40;;;0.40;;
15106;SDS011;7654;45.308;-75.096;2023-06-10T11:41:57;0.40;;;0.40;;
15106;SDS011;7654;45.308;-75.096;2023-06-10T11:44:28;0.30;;;0.30;;
15106;SDS011;7654;45.308;-75.096;2023-06-10T11:47:00;0.40;;;0.40;;
15106;SDS011;7654;45.308;-75.096;2023-06-10T11:49:33;0.40;;;0.40;;
15106;SDS011;7654;45.308;-75.096;2023-06-10T11:52:04;0.30;;;0.30;;
15106;SDS011;7654;45.308;-75.096;2023-06-10T11:54:35;0.40;;;0.40;;
15106;SDS011;7654;45.308;-75.096;2023-06-10T11:57:05;0.40;;;0.40;;
15106;SDS011;7654;45.308;-75.096;2023-06-10T11:59:36;0.33;;;0.33;;
15106;SDS011;7654;45.308;-75.096;2023-06-10T12:02:08;0.30;;;0.30;;
15106;SDS011;7654;45.308;-75.096;2023-06-10T12:04:46;0.40;;;0.40;;
15106;SDS011;7654;45.308;-75.096;2023-06-10T12:07:17;0.40;;;0.40;;
15106;SDS011;7654;45.308;-75.096;2023-06-10T12:09:58;0.40;;;0.40;;
15106;SDS011;7654;45.308;-75.096;2023-06-10T12:12:48;0.40;;;0.40;;
15106;SDS011;7654;45.308;-75.096;2023-06-10T12:15:23;0.40;;;0.40;;
15106;SDS011;7654;45.308;-75.096;2023-06-10T12:17:56;0.40;;;0.40;;
15106;SDS011;7654;45.308;-75.096;2023-06-10T12:20:28;0.30;;;0.30;;
15106;SDS011;7654;45.308;-75.096;2023-06-10T12:23:00;0.30;;;0.30;;
15106;SDS011;7654;45.308;-75.096;2023-06-10T12:25:37;0.30;;;0.30;;
15106;SDS011;7654;45.308;-75.096;2023-06-10T12:28:09;0.40;;;0.40;;
15106;SDS011;7654;45.308;-75.096;2023-06-10T12:30:40;0.33;;;0.33;;
15106;SDS011;7654;45.308;-75.096;2023-06-10T12:33:15;0.30;;;0.30;;
15106;SDS011;7654;45.308;-75.096;2023-06-10T12:35:48;0.30;;;0.30;;
15106;SDS011;7654;45.308;-75.096;2023-06-10T12:38:22;0.30;;;0.30;;
15106;SDS011;7654;45.308;-75.096;2023-06-10T12:40:54;0.30;;;0.30;;
15106;SDS011;7654;45.308;-75.096;2023-06-10T12:43:31;0.30;;;0.30;;
15106;SDS011;7654;45.308;-75.096;2023-06-10T12:46:08;0.30;;;0.30;;
15106;SDS011;7654;45.308;-75.096;2023-06-10T12:48:49;0.30;;;0.30;;
15106;SDS011;7654;45.308;-75.096;2023-06-10T12:51:23;0.30;;;0.30;;
15106;SDS011;7654;45.308;-75.096;2023-06-10T12:53:53;0.30;;;0.30;;
15106;SDS011;7654;45.308;-75.096;2023-06-10T12:56:24;0.30;;;0.30;;
15106;SDS011;7654;45.308;-75.096;2023-06-10T12:58:54;0.40;;;0.40;;
15106;SDS011;7654;45.308;-75.096;2023-06-10T13:01:24;0.30;;;0.30;;
15106;SDS011;7654;45.308;-75.096;2023-06-10T13:03:54;0.30;;;0.30;;
15106;SDS011;7654;45.308;-75.096;2023-06-10T13:06:27;0.30;;;0.30;;
15106;SDS011;7654;45.308;-75.096;2023-06-10T13:08:59;0.23;;;0.23;;
15106;SDS011;7654;45.308;-75.096;2023-06-10T13:11:30;0.30;;;0.30;;
15106;SDS011;7654;45.308;-75.096;2023-06-10T13:14:00;0.30;;;0.30;;
15106;SDS011;7654;45.308;-75.096;2023-06-10T13:16:31;0.30;;;0.30;;
15106;SDS011;7654;45.308;-75.096;2023-06-10T13:19:02;0.30;;;0.30;;
15106;SDS011;7654;45.308;-75.096;2023-06-10T13:21:34;0.30;;;0.30;;
15106;SDS011;7654;45.308;-75.096;2023-06-10T13:24:07;0.40;;;0.40;;
15106;SDS011;7654;45.308;-75.096;2023-06-10T13:26:37;0.40;;;0.40;;
15106;SDS011;7654;45.308;-75.096;2023-06-10T13:29:08;0.30;;;0.30;;
15106;SDS011;7654;45.308;-75.096;2023-06-10T13:31:41;0.30;;;0.30;;
15106;SDS011;7654;45.308;-75.096;2023-06-10T13:34:11;0.30;;;0.30;;
15106;SDS011;7654;45.308;-75.096;2023-06-10T13:36:43;0.30;;;0.30;;
15106;SDS011;7654;45.308;-75.096;2023-06-10T13:39:14;0.30;;;0.30;;
15106;SDS011;7654;45.308;-75.096;2023-06-10T13:41:44;0.30;;;0.30;;
15106;SDS011;7654;45.308;-75.096;2023-06-10T13:44:14;0.20;;;0.20;;
15106;SDS011;7654;45.308;-75.096;2023-06-10T13:46:45;0.30;;;0.30;;
15106;SDS011;7654;45.308;-75.096;2023-06-10T13:49:16;0.30;;;0.30;;
15106;SDS011;7654;45.308;-75.096;2023-06-10T13:51:49;0.30;;;0.30;;
15106;SDS011;7654;45.308;-75.096;2023-06-10T13:54:20;0.30;;;0.30;;
15106;SDS011;7654;45.308;-75.096;2023-06-10T13:56:50;0.33;;;0.33;;
15106;SDS011;7654;45.308;-75.096;2023-06-10T13:59:21;0.20;;;0.20;;
15106;SDS011;7654;45.308;-75.096;2023-06-10T14:01:51;0.20;;;0.20;;
15106;SDS011;7654;45.308;-75.096;2023-06-10T14:04:22;0.30;;;0.30;;
15106;SDS011;7654;45.308;-75.096;2023-06-10T14:06:54;0.30;;;0.30;;
15106;SDS011;7654;45.308;-75.096;2023-06-10T14:09:24;0.20;;;0.20;;
15106;SDS011;7654;45.308;-75.096;2023-06-10T14:11:54;0.30;;;0.30;;
15106;SDS011;7654;45.308;-75.096;2023-06-10T14:14:25;0.30;;;0.30;;
15106;SDS011;7654;45.308;-75.096;2023-06-10T14:16:56;0.30;;;0.30;;
15106;SDS011;7654;45.308;-75.096;2023-06-10T14:19:28;0.30;;;0.30;;
15106;SDS011;7654;45.308;-75.096;2023-06-10T14:22:00;0.30;;;0.30;;
15106;SDS011;7654;45.308;-75.096;2023-06-10T14:24:34;0.30;;;0.30;;
15106;SDS011;7654;45.308;-75.096;2023-06-10T14:27:05;0.30;;;0.30;;
15106;SDS011;7654;45.308;-75.096;2023-06-10T14:29:36;0.20;;;0.20;;
15106;SDS011;7654;45.308;-75.096;2023-06-10T14:32:07;0.30;;;0.30;;
15106;SDS011;7654;45.308;-75.096;2023-06-10T14:34:37;0.30;;;0.30;;
15106;SDS011;7654;45.308;-75.096;2023-06-10T14:37:11;0.23;;;0.23;;
15106;SDS011;7654;45.308;-75.096;2023-06-10T14:39:41;0.30;;;0.30;;
15106;SDS011;7654;45.308;-75.096;2023-06-10T14:42:12;0.30;;;0.30;;
15106;SDS011;7654;45.308;-75.096;2023-06-10T14:44:42;0.20;;;0.20;;
15106;SDS011;7654;45.308;-75.096;2023-06-10T14:47:12;0.30;;;0.30;;
15106;SDS011;7654;45.308;-75.096;2023-06-10T14:49:43;0.30;;;0.30;;
15106;SDS011;7654;45.308;-75.096;2023-06-10T14:52:15;0.20;;;0.20;;
15106;SDS011;7654;45.308;-75.096;2023-06-10T14:54:45;0.30;;;0.30;;
15106;SDS011;7654;45.308;-75.096;2023-06-10T14:57:15;0.23;;;0.23;;
15106;SDS011;7654;45.308;-75.096;2023-06-10T14:59:46;0.20;;;0.20;;
15106;SDS011;7654;45.308;-75.096;2023-06-10T15:02:16;0.20;;;0.20;;
15106;SDS011;7654;45.308;-75.096;2023-06-10T15:04:47;0.20;;;0.20;;